createdAt,value
2016-12-27T00:00:38.398Z,99.99
2016-12-27T00:01:49.382Z,99.99
2016-12-27T00:03:00.761Z,99.99
2016-12-27T00:04:11.738Z,99.99
2016-12-27T00:05:22.713Z,99.99
2016-12-27T00:06:34.040Z,99.99
2016-12-27T00:07:45.015Z,99.99
2016-12-27T00:08:56.007Z,99.99
2016-12-27T00:10:06.990Z,99.99
2016-12-27T00:11:17.971Z,99.99
2016-12-27T00:12:29.008Z,99.99
2016-12-27T00:13:39.989Z,99.99
2016-12-27T00:14:50.980Z,99.99
2016-12-27T00:16:01.962Z,99.99
2016-12-27T00:17:13.145Z,99.99
2016-12-27T00:18:24.278Z,99.99
2016-12-27T00:19:35.259Z,99.99
2016-12-27T00:20:46.244Z,99.99
2016-12-27T00:21:57.221Z,99.99
2016-12-27T00:23:08.406Z,99.99
2016-12-27T00:24:19.443Z,99.99
2016-12-27T00:25:30.423Z,99.99
2016-12-27T00:26:41.411Z,99.99
2016-12-27T00:27:52.398Z,99.99
2016-12-27T00:29:03.587Z,99.99
2016-12-27T00:30:14.565Z,99.99
2016-12-27T00:31:25.553Z,99.99
2016-12-27T00:32:36.526Z,99.99
2016-12-27T00:33:47.517Z,99.99
2016-12-27T00:34:58.705Z,99.99
2016-12-27T00:36:09.894Z,99.99
2016-12-27T00:37:20.875Z,99.99
2016-12-27T00:38:31.858Z,99.99
2016-12-27T00:39:43.043Z,99.99
2016-12-27T00:40:54.220Z,99.99
2016-12-27T00:42:05.200Z,99.99
2016-12-27T00:43:16.183Z,99.99
2016-12-27T00:44:27.169Z,99.99
2016-12-27T00:45:38.155Z,99.99
2016-12-27T00:46:49.147Z,99.99
2016-12-27T00:48:00.162Z,99.99
2016-12-27T00:49:11.142Z,99.99
2016-12-27T00:50:22.120Z,99.99
2016-12-27T00:51:33.105Z,99.99
2016-12-27T00:52:44.285Z,99.99
2016-12-27T00:53:55.264Z,99.99
2016-12-27T00:55:06.274Z,99.99
2016-12-27T00:56:17.259Z,99.99
2016-12-27T00:57:28.240Z,99.99
2016-12-27T00:58:39.210Z,99.99
2016-12-27T00:59:50.197Z,99.99
2016-12-27T01:01:01.194Z,99.99
2016-12-27T01:02:12.166Z,99.99
2016-12-27T01:03:23.146Z,99.99
2016-12-27T01:04:34.135Z,99.99
2016-12-27T01:05:45.164Z,99.99
2016-12-27T01:06:56.154Z,99.99
2016-12-27T01:08:07.161Z,99.99
2016-12-27T01:09:18.142Z,99.99
2016-12-27T01:10:29.120Z,99.99
2016-12-27T01:11:40.309Z,99.99
2016-12-27T01:12:51.298Z,99.99
2016-12-27T01:14:02.279Z,99.99
2016-12-27T01:15:13.308Z,99.99
2016-12-27T01:16:24.288Z,99.99
2016-12-27T01:17:35.272Z,99.99
2016-12-27T01:18:46.259Z,99.99
2016-12-27T01:19:57.236Z,99.99
2016-12-27T01:21:08.473Z,99.99
2016-12-27T01:22:19.459Z,99.99
2016-12-27T01:23:30.453Z,99.99
2016-12-27T01:24:41.441Z,99.99
2016-12-27T01:25:52.828Z,99.99
2016-12-27T01:27:03.804Z,99.99
2016-12-27T01:28:14.788Z,99.99
2016-12-27T01:29:25.777Z,99.99
2016-12-27T01:30:36.765Z,99.99
2016-12-27T01:31:47.743Z,99.99
2016-12-27T01:32:58.727Z,99.99
2016-12-27T01:34:09.704Z,99.99
2016-12-27T01:35:20.884Z,99.99
2016-12-27T01:36:31.862Z,99.99
2016-12-27T01:37:43.045Z,99.99
2016-12-27T01:38:54.232Z,99.99
2016-12-27T01:40:05.473Z,99.99
2016-12-27T01:41:16.458Z,99.99
2016-12-27T01:42:27.447Z,99.99
2016-12-27T01:43:38.432Z,99.99
2016-12-27T01:44:49.408Z,99.99
2016-12-27T01:46:00.594Z,99.99
2016-12-27T01:47:11.576Z,99.99
2016-12-27T01:48:22.563Z,99.99
2016-12-27T01:49:33.543Z,99.99
2016-12-27T01:50:44.526Z,99.99
2016-12-27T01:51:55.518Z,99.99
2016-12-27T01:53:06.702Z,99.99
2016-12-27T01:54:17.691Z,99.99
2016-12-27T01:55:28.668Z,99.99
2016-12-27T01:56:39.654Z,99.99
2016-12-27T01:57:51.058Z,99.99
2016-12-27T01:59:02.044Z,99.99
2016-12-27T02:00:13.029Z,99.99
2016-12-27T02:01:24.011Z,99.99
2016-12-27T02:02:34.993Z,99.99
2016-12-27T02:03:45.971Z,99.99
2016-12-27T02:04:56.954Z,99.99
2016-12-27T02:06:07.935Z,99.99
2016-12-27T02:07:18.918Z,99.99
2016-12-27T02:08:29.926Z,99.99
2016-12-27T02:09:40.912Z,99.99
2016-12-27T02:10:51.892Z,99.99
2016-12-27T02:12:03.080Z,99.99
2016-12-27T02:13:14.061Z,99.99
2016-12-27T02:14:25.254Z,99.99
2016-12-27T02:15:36.440Z,99.99
2016-12-27T02:16:47.427Z,99.99
2016-12-27T02:17:58.407Z,99.99
2016-12-27T02:19:09.424Z,99.99
2016-12-27T02:20:20.416Z,99.99
2016-12-27T02:21:31.397Z,99.99
2016-12-27T02:22:42.780Z,99.99
2016-12-27T02:23:53.761Z,99.99
2016-12-27T02:25:04.756Z,99.99
2016-12-27T02:26:15.744Z,99.99
2016-12-27T02:27:26.731Z,99.99
2016-12-27T02:28:37.718Z,99.99
2016-12-27T02:29:48.704Z,99.99
2016-12-27T02:30:59.691Z,99.99
2016-12-27T02:32:11.079Z,99.99
2016-12-27T02:33:22.064Z,99.99
2016-12-27T02:34:33.040Z,99.99
2016-12-27T02:35:44.227Z,99.99
2016-12-27T02:36:55.217Z,99.99
2016-12-27T02:38:06.408Z,99.99
2016-12-27T02:39:17.614Z,99.99
2016-12-27T02:40:28.598Z,99.99
2016-12-27T02:41:39.579Z,99.99
2016-12-27T02:42:50.565Z,99.99
2016-12-27T02:44:01.552Z,99.99
2016-12-27T02:45:12.533Z,99.99
2016-12-27T02:46:23.519Z,99.99
2016-12-27T02:47:34.509Z,99.99
2016-12-27T02:48:45.696Z,99.99
2016-12-27T02:49:56.679Z,99.99
2016-12-27T02:51:07.670Z,99.99
2016-12-27T02:52:18.652Z,99.99
2016-12-27T02:53:29.642Z,99.99
2016-12-27T02:54:40.628Z,99.99
2016-12-27T02:55:51.816Z,99.99
2016-12-27T02:57:02.800Z,99.99
2016-12-27T02:58:13.810Z,99.99
2016-12-27T02:59:24.788Z,99.99
2016-12-27T03:00:35.770Z,99.99
2016-12-27T03:01:46.753Z,99.99
2016-12-27T03:02:57.743Z,99.99
2016-12-27T03:04:08.751Z,99.99
2016-12-27T03:05:19.934Z,99.99
2016-12-27T03:06:30.919Z,99.99
2016-12-27T03:07:41.942Z,99.99
2016-12-27T03:08:52.953Z,99.99
2016-12-27T03:10:03.939Z,99.99
2016-12-27T03:11:14.926Z,99.99
2016-12-27T03:12:26.109Z,99.99
2016-12-27T03:13:37.094Z,99.99
2016-12-27T03:14:48.071Z,99.99
2016-12-27T03:15:59.061Z,99.99
2016-12-27T03:17:10.046Z,99.99
2016-12-27T03:18:21.036Z,99.99
2016-12-27T03:19:32.014Z,99.99
2016-12-27T03:20:43.005Z,99.99
2016-12-27T03:21:53.997Z,99.99
2016-12-27T03:23:04.974Z,99.99
2016-12-27T03:24:15.959Z,99.99
2016-12-27T03:25:26.982Z,99.99
2016-12-27T03:26:37.968Z,99.99
2016-12-27T03:27:48.959Z,99.99
2016-12-27T03:28:59.943Z,99.99
2016-12-27T03:30:10.930Z,99.99
2016-12-27T03:31:22.117Z,99.99
2016-12-27T03:32:33.299Z,99.99
2016-12-27T03:33:44.279Z,99.99
2016-12-27T03:34:55.265Z,99.99
2016-12-27T03:36:06.251Z,99.99
2016-12-27T03:37:17.233Z,99.99
2016-12-27T03:38:28.218Z,99.99
2016-12-27T03:39:39.203Z,99.99
2016-12-27T03:40:50.187Z,99.99
2016-12-27T03:42:01.170Z,99.99
2016-12-27T03:43:12.155Z,99.99
2016-12-27T03:44:23.143Z,99.99
2016-12-27T03:45:34.131Z,99.99
2016-12-27T03:46:45.120Z,99.99
2016-12-27T03:47:56.101Z,99.99
2016-12-27T03:49:07.086Z,99.99
2016-12-27T03:50:18.086Z,99.99
2016-12-27T03:51:29.070Z,99.99
2016-12-27T03:52:40.283Z,99.99
2016-12-27T03:53:51.263Z,99.99
2016-12-27T03:55:02.295Z,99.99
2016-12-27T03:56:13.277Z,99.99
2016-12-27T03:57:24.262Z,99.99
2016-12-27T03:58:35.254Z,99.99
2016-12-27T03:59:46.436Z,99.99
2016-12-27T04:00:57.420Z,99.99
2016-12-27T04:02:08.426Z,99.99
2016-12-27T04:03:19.405Z,99.99
2016-12-27T04:04:30.390Z,99.99
2016-12-27T04:05:41.374Z,99.99
2016-12-27T04:06:52.357Z,99.99
2016-12-27T04:08:03.343Z,99.99
2016-12-27T04:09:14.329Z,99.99
2016-12-27T04:10:25.311Z,99.99
2016-12-27T04:11:36.698Z,99.99
2016-12-27T04:12:47.684Z,99.99
2016-12-27T04:13:58.683Z,99.99
2016-12-27T04:15:09.667Z,99.99
2016-12-27T04:16:20.658Z,99.99
2016-12-27T04:17:31.639Z,99.99
2016-12-27T04:18:42.628Z,99.99
2016-12-27T04:19:53.611Z,99.99
2016-12-27T04:21:04.601Z,99.99
2016-12-27T04:22:15.588Z,99.99
2016-12-27T04:23:26.771Z,99.99
2016-12-27T04:24:37.780Z,99.99
2016-12-27T04:25:48.964Z,99.99
2016-12-27T04:26:59.952Z,99.99
2016-12-27T04:28:10.937Z,99.99
2016-12-27T04:29:21.923Z,99.99
2016-12-27T04:30:32.956Z,99.99
2016-12-27T04:31:43.936Z,99.99
2016-12-27T04:32:55.121Z,99.99
2016-12-27T04:34:06.109Z,99.99
2016-12-27T04:35:17.300Z,99.99
2016-12-27T04:36:28.292Z,99.99
2016-12-27T04:37:39.274Z,99.99
2016-12-27T04:38:50.256Z,99.99
2016-12-27T04:40:01.246Z,99.99
2016-12-27T04:41:12.235Z,99.99
2016-12-27T04:42:23.424Z,99.99
2016-12-27T04:43:34.413Z,99.99
2016-12-27T04:44:45.399Z,99.99
2016-12-27T04:45:56.374Z,99.99
2016-12-27T04:47:07.355Z,99.99
2016-12-27T04:48:18.553Z,99.99
2016-12-27T04:49:29.537Z,99.99
2016-12-27T04:50:40.522Z,99.99
2016-12-27T04:51:51.504Z,99.99
2016-12-27T04:53:02.492Z,99.99
2016-12-27T04:54:13.481Z,99.99
2016-12-27T04:55:24.512Z,99.99
2016-12-27T04:56:35.695Z,99.99
2016-12-27T04:57:46.709Z,99.99
2016-12-27T04:58:57.699Z,99.99
2016-12-27T05:00:08.684Z,99.99
2016-12-27T05:01:19.669Z,99.99
2016-12-27T05:02:30.642Z,99.99
2016-12-27T05:03:41.626Z,99.99
2016-12-27T05:04:52.609Z,99.99
2016-12-27T05:06:03.592Z,99.99
2016-12-27T05:07:14.575Z,99.99
2016-12-27T05:08:25.582Z,99.99
2016-12-27T05:09:36.564Z,99.99
2016-12-27T05:10:47.552Z,99.99
2016-12-27T05:11:58.534Z,99.99
2016-12-27T05:13:09.714Z,99.99
2016-12-27T05:14:20.691Z,99.99
2016-12-27T05:15:31.673Z,99.99
2016-12-27T05:16:42.652Z,99.99
2016-12-27T05:17:53.656Z,99.99
2016-12-27T05:19:04.639Z,99.99
2016-12-27T05:20:15.619Z,99.99
2016-12-27T05:21:26.593Z,99.99
2016-12-27T05:22:37.579Z,99.99
2016-12-27T05:23:48.564Z,99.99
2016-12-27T05:24:59.544Z,99.99
2016-12-27T05:26:10.730Z,99.99
2016-12-27T05:27:21.710Z,99.99
2016-12-27T05:28:32.702Z,99.99
2016-12-27T05:29:43.886Z,99.99
2016-12-27T05:30:54.875Z,99.99
2016-12-27T05:32:05.870Z,99.99
2016-12-27T05:33:16.848Z,99.99
2016-12-27T05:34:27.846Z,99.99
2016-12-27T05:35:38.826Z,99.99
2016-12-27T05:36:49.805Z,99.99
2016-12-27T05:38:00.786Z,99.99
2016-12-27T05:39:11.772Z,99.99
2016-12-27T05:40:22.759Z,99.99
2016-12-27T05:41:33.744Z,99.99
2016-12-27T05:42:44.933Z,99.99
2016-12-27T05:43:56.120Z,99.99
2016-12-27T05:45:07.108Z,99.99
2016-12-27T05:46:18.091Z,99.99
2016-12-27T05:47:29.096Z,99.99
2016-12-27T05:48:40.076Z,99.99
2016-12-27T05:49:51.270Z,99.99
2016-12-27T05:51:02.315Z,99.99
2016-12-27T05:52:13.307Z,99.99
2016-12-27T05:53:24.289Z,99.99
2016-12-27T05:54:35.273Z,99.99
2016-12-27T05:55:46.259Z,99.99
2016-12-27T05:56:57.237Z,99.99
2016-12-27T05:58:08.226Z,99.99
2016-12-27T05:59:19.214Z,99.99
2016-12-27T06:00:30.197Z,99.99
2016-12-27T06:01:41.177Z,99.99
2016-12-27T06:02:52.166Z,99.99
2016-12-27T06:04:03.147Z,99.99
2016-12-27T06:05:14.136Z,99.99
2016-12-27T06:06:25.126Z,99.99
2016-12-27T06:07:36.107Z,99.99
2016-12-27T06:08:47.100Z,99.99
2016-12-27T06:09:58.085Z,99.99
2016-12-27T06:11:09.068Z,99.99
2016-12-27T06:12:20.053Z,99.99
2016-12-27T06:13:31.045Z,99.99
2016-12-27T06:14:42.017Z,99.99
2016-12-27T06:15:53.050Z,99.99
2016-12-27T06:17:04.236Z,99.99
2016-12-27T06:18:15.221Z,99.99
2016-12-27T06:19:26.204Z,99.99
2016-12-27T06:20:37.400Z,99.99
2016-12-27T06:21:48.382Z,99.99
2016-12-27T06:22:59.371Z,99.99
2016-12-27T06:24:10.555Z,99.99
2016-12-27T06:25:21.740Z,99.99
2016-12-27T06:26:32.719Z,99.99
2016-12-27T06:27:43.905Z,99.99
2016-12-27T06:28:55.100Z,99.99
2016-12-27T06:30:06.292Z,99.99
2016-12-27T06:31:17.306Z,99.99
2016-12-27T06:32:28.287Z,99.99
2016-12-27T06:33:39.482Z,99.99
2016-12-27T06:34:50.461Z,99.99
2016-12-27T06:36:01.436Z,99.99
2016-12-27T06:37:12.418Z,99.99
2016-12-27T06:38:23.401Z,99.99
2016-12-27T06:39:34.389Z,99.99
2016-12-27T06:40:45.373Z,99.99
2016-12-27T06:41:56.356Z,99.99
2016-12-27T06:43:07.560Z,99.99
2016-12-27T06:44:18.539Z,99.99
2016-12-27T06:45:29.933Z,99.99
2016-12-27T06:46:40.920Z,99.99
2016-12-27T06:47:51.911Z,99.99
2016-12-27T06:49:02.892Z,99.99
2016-12-27T06:50:14.074Z,99.99
2016-12-27T06:51:25.269Z,99.99
2016-12-27T06:52:36.263Z,99.99
2016-12-27T06:53:47.243Z,99.99
2016-12-27T06:54:58.222Z,99.99
2016-12-27T06:56:09.253Z,99.99
2016-12-27T06:57:20.236Z,99.99
2016-12-27T06:58:31.225Z,99.99
2016-12-27T06:59:42.208Z,99.99
2016-12-27T07:00:53.247Z,99.99
2016-12-27T07:02:04.237Z,99.99
2016-12-27T07:03:15.216Z,99.99
2016-12-27T07:04:26.201Z,99.99
2016-12-27T07:05:37.215Z,99.99
2016-12-27T07:06:48.199Z,99.99
2016-12-27T07:07:59.374Z,99.99
2016-12-27T07:09:10.386Z,99.99
2016-12-27T07:10:21.377Z,99.99
2016-12-27T07:11:32.365Z,99.99
2016-12-27T07:12:43.548Z,99.99
2016-12-27T07:13:54.528Z,99.99
2016-12-27T07:15:05.554Z,99.99
2016-12-27T07:16:16.533Z,99.99
2016-12-27T07:17:27.550Z,99.99
2016-12-27T07:18:38.738Z,99.99
2016-12-27T07:19:49.720Z,99.99
2016-12-27T07:21:00.707Z,99.99
2016-12-27T07:22:11.691Z,99.99
2016-12-27T07:23:22.673Z,99.99
2016-12-27T07:24:33.867Z,99.99
2016-12-27T07:25:44.853Z,99.99
2016-12-27T07:26:55.830Z,99.99
2016-12-27T07:28:06.822Z,99.99
2016-12-27T07:29:18.007Z,99.99
2016-12-27T07:30:28.999Z,99.99
2016-12-27T07:31:39.991Z,99.99
2016-12-27T07:32:50.968Z,99.99
2016-12-27T07:34:01.945Z,99.99
2016-12-27T07:35:12.928Z,99.99
2016-12-27T07:36:23.913Z,99.99
2016-12-27T07:37:34.896Z,99.99
2016-12-27T07:38:45.885Z,99.99
2016-12-27T07:39:57.065Z,99.99
2016-12-27T07:41:08.101Z,99.99
2016-12-27T07:42:19.085Z,99.99
2016-12-27T07:43:30.089Z,99.99
2016-12-27T07:44:41.067Z,99.99
2016-12-27T07:45:52.249Z,99.99
2016-12-27T07:47:03.236Z,99.99
2016-12-27T07:48:14.618Z,99.99
2016-12-27T07:49:25.603Z,99.99
2016-12-27T07:50:36.584Z,99.99
2016-12-27T07:51:47.568Z,99.99
2016-12-27T07:52:58.558Z,99.99
2016-12-27T07:54:09.596Z,99.99
2016-12-27T07:55:20.781Z,99.99
2016-12-27T07:56:31.762Z,99.99
2016-12-27T07:57:42.743Z,99.99
2016-12-27T07:58:53.721Z,99.99
2016-12-27T08:00:04.707Z,99.99
2016-12-27T08:01:15.687Z,99.99
2016-12-27T08:02:26.666Z,99.99
2016-12-27T08:03:37.673Z,99.99
2016-12-27T08:04:48.847Z,99.99
2016-12-27T08:05:59.834Z,99.99
2016-12-27T08:07:11.014Z,99.99
2016-12-27T08:08:22.523Z,99.99
2016-12-27T08:09:33.182Z,99.99
2016-12-27T08:10:44.167Z,99.99
2016-12-27T08:11:55.147Z,99.99
2016-12-27T08:13:06.138Z,99.99
2016-12-27T08:14:17.119Z,99.99
2016-12-27T08:15:28.107Z,99.99
2016-12-27T08:16:39.085Z,99.99
2016-12-27T08:17:50.069Z,99.99
2016-12-27T08:19:01.261Z,99.99
2016-12-27T08:20:12.242Z,99.99
2016-12-27T08:21:23.230Z,99.99
2016-12-27T08:22:34.217Z,99.99
2016-12-27T08:23:45.401Z,99.99
2016-12-27T08:24:56.385Z,99.99
2016-12-27T08:26:07.379Z,99.99
2016-12-27T08:27:18.364Z,99.99
2016-12-27T08:28:29.585Z,99.99
2016-12-27T08:29:40.570Z,99.99
2016-12-27T08:30:51.548Z,99.99
2016-12-27T08:32:02.532Z,99.99
2016-12-27T08:33:13.515Z,99.99
2016-12-27T08:34:24.497Z,99.99
2016-12-27T08:35:35.679Z,99.99
2016-12-27T08:36:46.875Z,99.99
2016-12-27T08:37:58.062Z,99.99
2016-12-27T08:39:09.050Z,99.99
2016-12-27T08:40:20.035Z,99.99
2016-12-27T08:41:31.025Z,99.99
2016-12-27T08:42:42.030Z,99.99
2016-12-27T08:43:53.020Z,99.99
2016-12-27T08:45:04.260Z,99.99
2016-12-27T08:46:15.250Z,99.99
2016-12-27T08:47:26.233Z,99.99
2016-12-27T08:48:37.220Z,99.99
2016-12-27T08:49:48.210Z,99.99
2016-12-27T08:50:59.192Z,99.99
2016-12-27T08:52:10.175Z,99.99
2016-12-27T08:53:21.188Z,99.99
2016-12-27T08:54:32.175Z,99.99
2016-12-27T08:55:43.162Z,99.99
2016-12-27T08:56:54.143Z,99.99
2016-12-27T08:58:05.134Z,99.99
2016-12-27T08:59:16.122Z,99.99
2016-12-27T09:00:27.554Z,99.99
2016-12-27T09:01:38.558Z,99.99
2016-12-27T09:02:49.547Z,99.99
2016-12-27T09:04:00.561Z,99.99
2016-12-27T09:05:11.756Z,99.99
2016-12-27T09:06:22.793Z,99.99
2016-12-27T09:07:33.781Z,99.99
2016-12-27T09:08:44.968Z,99.99
2016-12-27T09:09:55.958Z,99.99
2016-12-27T09:11:06.954Z,99.99
2016-12-27T09:12:18.193Z,99.99
2016-12-27T09:13:29.177Z,99.99
2016-12-27T09:14:40.161Z,99.99
2016-12-27T09:15:51.133Z,99.99
2016-12-27T09:17:02.124Z,99.99
2016-12-27T09:18:13.154Z,99.99
2016-12-27T09:19:24.143Z,99.99
2016-12-27T09:20:35.339Z,99.99
2016-12-27T09:21:46.518Z,99.99
2016-12-27T09:22:57.506Z,99.99
2016-12-27T09:24:08.548Z,99.99
2016-12-27T09:25:19.734Z,99.99
2016-12-27T09:26:30.722Z,99.99
2016-12-27T09:27:41.707Z,99.99
2016-12-27T09:28:52.688Z,99.99
2016-12-27T09:30:03.722Z,99.99
2016-12-27T09:31:14.705Z,99.99
2016-12-27T09:32:25.687Z,99.99
2016-12-27T09:33:36.672Z,99.99
2016-12-27T09:34:47.657Z,99.99
2016-12-27T09:35:58.640Z,99.99
2016-12-27T09:37:09.621Z,99.99
2016-12-27T09:38:20.606Z,99.99
2016-12-27T09:39:31.593Z,99.99
2016-12-27T09:40:42.574Z,99.99
2016-12-27T09:41:53.563Z,99.99
2016-12-27T09:43:04.575Z,99.99
2016-12-27T09:44:15.556Z,99.99
2016-12-27T09:45:26.540Z,99.99
2016-12-27T09:46:37.527Z,99.99
2016-12-27T09:47:48.521Z,99.99
2016-12-27T09:48:59.506Z,99.99
2016-12-27T09:50:10.695Z,99.99
2016-12-27T09:51:21.677Z,99.99
2016-12-27T09:52:32.672Z,99.99
2016-12-27T09:53:43.662Z,99.99
2016-12-27T09:54:54.644Z,99.99
2016-12-27T09:56:05.629Z,99.99
2016-12-27T09:57:16.822Z,99.99
2016-12-27T09:58:27.813Z,99.99
2016-12-27T09:59:38.804Z,99.99
2016-12-27T10:00:49.793Z,99.99
2016-12-27T10:02:00.782Z,99.99
2016-12-27T10:03:11.771Z,99.99
2016-12-27T10:04:22.763Z,99.99
2016-12-27T10:05:33.833Z,99.99
2016-12-27T10:06:45.021Z,99.99
2016-12-27T10:07:56.014Z,99.99
2016-12-27T10:09:07.010Z,99.99
2016-12-27T10:10:18.004Z,99.99
2016-12-27T10:11:28.998Z,99.99
2016-12-27T10:12:39.982Z,99.99
2016-12-27T10:13:50.969Z,99.99
2016-12-27T10:15:02.242Z,99.99
2016-12-27T10:16:13.230Z,99.99
2016-12-27T10:17:24.218Z,99.99
2016-12-27T10:18:35.204Z,99.99
2016-12-27T10:19:46.229Z,99.99
2016-12-27T10:20:57.425Z,99.99
2016-12-27T10:22:08.417Z,99.99
2016-12-27T10:23:19.407Z,99.99
2016-12-27T10:24:30.401Z,99.99
2016-12-27T10:25:41.395Z,99.99
2016-12-27T10:26:52.391Z,99.99
2016-12-27T10:28:03.384Z,99.99
2016-12-27T10:29:14.376Z,99.99
2016-12-27T10:30:25.375Z,99.99
2016-12-27T10:31:36.380Z,99.75
2016-12-27T10:32:47.370Z,99.84
2016-12-27T10:33:58.356Z,99.6
2016-12-27T10:35:09.355Z,99.65
2016-12-27T10:36:20.356Z,99.99
2016-12-27T10:37:31.356Z,99.99
2016-12-27T10:38:42.350Z,99.89
2016-12-27T10:39:53.351Z,99.75
2016-12-27T10:41:04.403Z,99.75
2016-12-27T10:42:15.403Z,99.69
2016-12-27T10:43:26.387Z,99.99
2016-12-27T10:44:37.384Z,99.46
2016-12-27T10:45:48.378Z,98.7
2016-12-27T10:46:59.377Z,98.41
2016-12-27T10:48:10.369Z,99.46
2016-12-27T10:49:21.362Z,99.18
2016-12-27T10:50:32.606Z,97.94
2016-12-27T10:51:43.602Z,97.08
2016-12-27T10:52:54.597Z,97.56
2016-12-27T10:54:05.592Z,97.94
2016-12-27T10:55:16.593Z,97.17
2016-12-27T10:56:27.579Z,96.6
2016-12-27T10:57:38.572Z,95.98
2016-12-27T10:58:49.566Z,97.17
2016-12-27T11:00:00.761Z,98.22
2016-12-27T11:01:11.762Z,98.22
2016-12-27T11:02:22.961Z,98.6
2016-12-27T11:03:34.158Z,98.6
2016-12-27T11:04:45.150Z,97.94
2016-12-27T11:05:56.195Z,98.22
2016-12-27T11:07:07.420Z,96.8
2016-12-27T11:08:18.416Z,95.89
2016-12-27T11:09:29.407Z,95.7
2016-12-27T11:10:40.405Z,95.12
2016-12-27T11:11:51.605Z,94.37
2016-12-27T11:13:02.597Z,94.37
2016-12-27T11:14:13.791Z,94.93
2016-12-27T11:15:24.791Z,95.12
2016-12-27T11:16:35.786Z,94.74
2016-12-27T11:17:46.775Z,95.89
2016-12-27T11:18:57.767Z,96.08
2016-12-27T11:20:08.756Z,96.46
2016-12-27T11:21:19.749Z,96.7
2016-12-27T11:22:30.747Z,98.03
2016-12-27T11:23:41.737Z,99.75
2016-12-27T11:24:52.732Z,99.99
2016-12-27T11:26:03.734Z,99.99
2016-12-27T11:27:14.726Z,99.99
2016-12-27T11:28:25.745Z,99.99
2016-12-27T11:29:36.729Z,99.99
2016-12-27T11:30:47.981Z,99.99
2016-12-27T11:31:58.974Z,99.99
2016-12-27T11:33:09.963Z,99.99
2016-12-27T11:34:20.970Z,99.99
2016-12-27T11:35:31.961Z,99.99
2016-12-27T11:36:42.997Z,99.99
2016-12-27T11:37:54.014Z,99.99
2016-12-27T11:39:05.003Z,99.99
2016-12-27T11:40:16.001Z,99.99
2016-12-27T11:41:27.019Z,99.99
2016-12-27T11:42:38.072Z,99.99
2016-12-27T11:43:49.268Z,99.99
2016-12-27T11:45:00.250Z,99.99
2016-12-27T11:46:11.243Z,99.99
2016-12-27T11:47:22.246Z,99.99
2016-12-27T11:48:33.487Z,99.99
2016-12-27T11:49:44.476Z,99.99
2016-12-27T11:50:55.465Z,99.99
2016-12-27T11:52:06.460Z,99.99
2016-12-27T11:53:17.447Z,99.99
2016-12-27T11:54:28.689Z,99.65
2016-12-27T11:55:39.683Z,99.99
2016-12-27T11:56:50.885Z,99.99
2016-12-27T11:58:02.085Z,99.99
2016-12-27T11:59:13.283Z,99.99
2016-12-27T12:00:24.482Z,99.99
2016-12-27T12:01:35.483Z,99.99
2016-12-27T12:02:46.902Z,99.99
2016-12-27T12:03:57.910Z,99.99
2016-12-27T12:05:08.908Z,99.99
2016-12-27T12:06:19.910Z,99.75
2016-12-27T12:07:30.903Z,98.41
2016-12-27T12:08:41.891Z,98.85
2016-12-27T12:09:52.882Z,99.04
2016-12-27T12:11:03.871Z,98.89
2016-12-27T12:12:14.864Z,98.7
2016-12-27T12:13:25.850Z,99.94
2016-12-27T12:14:36.865Z,97.99
2016-12-27T12:15:47.860Z,99.22
2016-12-27T12:16:59.058Z,99.99
2016-12-27T12:18:10.272Z,99.99
2016-12-27T12:19:21.251Z,99.99
2016-12-27T12:20:32.240Z,99.99
2016-12-27T12:21:43.226Z,99.99
2016-12-27T12:22:54.429Z,99.99
2016-12-27T12:24:05.626Z,99.99
2016-12-27T12:25:16.662Z,99.99
2016-12-27T12:26:27.659Z,99.99
2016-12-27T12:27:38.656Z,99.99
2016-12-27T12:28:49.644Z,99.99
2016-12-27T12:30:01.043Z,99.99
2016-12-27T12:31:12.090Z,99.99
2016-12-27T12:32:23.276Z,99.99
2016-12-27T12:33:34.470Z,99.99
2016-12-27T12:34:45.663Z,99.99
2016-12-27T12:35:56.858Z,99.99
2016-12-27T12:37:07.896Z,99.99
2016-12-27T12:38:18.892Z,99.99
2016-12-27T12:39:29.888Z,99.99
2016-12-27T12:40:41.076Z,99.99
2016-12-27T12:41:52.265Z,99.99
2016-12-27T12:43:03.306Z,99.89
2016-12-27T12:44:14.294Z,99.32
2016-12-27T12:45:25.290Z,99.04
2016-12-27T12:46:36.290Z,99.7
2016-12-27T12:47:47.278Z,99.8
2016-12-27T12:48:58.523Z,99.6
2016-12-27T12:50:09.513Z,99.99
2016-12-27T12:51:20.512Z,99.99
2016-12-27T12:52:31.499Z,99.8
2016-12-27T12:53:42.500Z,99.99
2016-12-27T12:54:53.738Z,99.89
2016-12-27T12:56:04.928Z,99.99
2016-12-27T12:57:15.927Z,99.89
2016-12-27T12:58:26.916Z,99.6
2016-12-27T12:59:37.902Z,99.99
2016-12-27T13:00:49.141Z,99.99
2016-12-27T13:02:00.133Z,99.99
2016-12-27T13:03:11.124Z,99.99
2016-12-27T13:04:22.110Z,99.99
2016-12-27T13:05:33.097Z,99.99
2016-12-27T13:06:44.086Z,99.99
2016-12-27T13:07:55.070Z,99.99
2016-12-27T13:09:06.068Z,99.99
2016-12-27T13:10:17.061Z,99.99
2016-12-27T13:11:28.053Z,99.99
2016-12-27T13:12:39.041Z,99.99
2016-12-27T13:13:50.027Z,99.99
2016-12-27T13:15:01.019Z,99.99
2016-12-27T13:16:12.012Z,99.99
2016-12-27T13:17:23.028Z,99.99
2016-12-27T13:18:34.217Z,99.99
2016-12-27T13:19:45.407Z,99.99
2016-12-27T13:20:56.398Z,99.99
2016-12-27T13:22:07.384Z,99.99
2016-12-27T13:23:18.574Z,99.99
2016-12-27T13:24:29.563Z,99.99
2016-12-27T13:25:40.551Z,99.99
2016-12-27T13:26:51.529Z,99.99
2016-12-27T13:28:02.512Z,99.99
2016-12-27T13:29:13.503Z,99.99
2016-12-27T13:30:24.487Z,99.99
2016-12-27T13:31:35.474Z,99.99
2016-12-27T13:32:46.458Z,99.99
2016-12-27T13:33:57.448Z,99.99
2016-12-27T13:35:08.632Z,99.99
2016-12-27T13:36:19.620Z,99.99
2016-12-27T13:37:30.613Z,99.99
2016-12-27T13:38:41.598Z,99.99
2016-12-27T13:39:52.587Z,99.99
2016-12-27T13:41:03.776Z,99.99
2016-12-27T13:42:14.763Z,99.99
2016-12-27T13:43:25.752Z,99.99
2016-12-27T13:44:36.745Z,99.99
2016-12-27T13:45:47.739Z,99.99
2016-12-27T13:46:58.735Z,99.99
2016-12-27T13:48:09.929Z,99.99
2016-12-27T13:49:20.921Z,99.99
2016-12-27T13:50:31.960Z,99.99
2016-12-27T13:51:42.955Z,99.99
2016-12-27T13:52:53.946Z,99.99
2016-12-27T13:54:04.935Z,99.99
2016-12-27T13:55:15.935Z,99.99
2016-12-27T13:56:27.320Z,99.99
2016-12-27T13:57:38.307Z,99.99
2016-12-27T13:58:49.328Z,99.99
2016-12-27T14:00:00.320Z,99.99
2016-12-27T14:01:11.304Z,99.99
2016-12-27T14:02:22.496Z,99.99
2016-12-27T14:03:33.498Z,99.99
2016-12-27T14:04:44.481Z,99.99
2016-12-27T14:05:55.667Z,99.99
2016-12-27T14:07:06.854Z,99.99
2016-12-27T14:08:17.853Z,99.99
2016-12-27T14:09:28.849Z,99.99
2016-12-27T14:10:39.837Z,99.99
2016-12-27T14:11:50.833Z,99.99
2016-12-27T14:13:01.826Z,99.99
2016-12-27T14:14:12.815Z,99.99
2016-12-27T14:15:23.997Z,99.99
2016-12-27T14:16:34.989Z,99.99
2016-12-27T14:17:45.982Z,99.99
2016-12-27T14:18:57.173Z,99.99
2016-12-27T14:20:08.357Z,99.99
2016-12-27T14:21:19.339Z,99.99
2016-12-27T14:22:30.518Z,99.99
2016-12-27T14:23:41.517Z,99.99
2016-12-27T14:24:52.711Z,99.99
2016-12-27T14:26:03.695Z,99.99
2016-12-27T14:27:14.683Z,99.99
2016-12-27T14:28:25.660Z,99.99
2016-12-27T14:29:36.644Z,99.99
2016-12-27T14:30:47.631Z,99.99
2016-12-27T14:31:58.612Z,99.99
2016-12-27T14:33:09.596Z,99.99
2016-12-27T14:34:20.578Z,99.99
2016-12-27T14:35:31.570Z,99.99
2016-12-27T14:36:42.562Z,99.99
2016-12-27T14:37:53.750Z,99.99
2016-12-27T14:39:04.756Z,99.99
2016-12-27T14:40:15.745Z,99.99
2016-12-27T14:41:26.727Z,99.99
2016-12-27T14:42:37.711Z,99.99
2016-12-27T14:43:48.687Z,99.99
2016-12-27T14:44:59.680Z,99.99
2016-12-27T14:46:10.670Z,99.99
2016-12-27T14:47:21.655Z,99.99
2016-12-27T14:48:32.672Z,99.99
2016-12-27T14:49:43.653Z,99.99
2016-12-27T14:50:54.637Z,99.99
2016-12-27T14:52:05.660Z,99.99
2016-12-27T14:53:16.648Z,99.99
2016-12-27T14:54:27.834Z,99.99
2016-12-27T14:55:39.024Z,99.99
2016-12-27T14:56:50.208Z,99.99
2016-12-27T14:58:01.199Z,99.99
2016-12-27T14:59:12.228Z,99.99
2016-12-27T15:00:23.214Z,99.99
2016-12-27T15:01:34.202Z,99.99
2016-12-27T15:02:45.189Z,99.99
2016-12-27T15:03:56.171Z,99.99
2016-12-27T15:05:07.174Z,99.99
2016-12-27T15:06:18.154Z,99.99
2016-12-27T15:07:29.126Z,99.99
2016-12-27T15:08:40.143Z,99.99
2016-12-27T15:09:51.131Z,99.99
2016-12-27T15:11:02.162Z,99.99
2016-12-27T15:12:13.154Z,99.99
2016-12-27T15:13:24.143Z,99.99
2016-12-27T15:14:35.125Z,99.99
2016-12-27T15:15:46.111Z,99.99